Time;durP1;ratioP1;P1;durP2;ratioP2;P2;SDS_P1;SDS_P2;PMS_P1;PMS_P2;Temp;Humidity;BMP_temperature;BMP_pressure;BME280_temperature;BME280_humidity;BME280_pressure;Samples;Min_cycle;Max_cycle;Signal;HPM_P1;HPM_P2
2022/01/16 00:01:17;;;;;;;18.65;5.80;;;20.80;53.30;;;;;;4482293;31;20129;-64
2022/01/16 00:06:27;;;;;;;19.65;6.38;;;20.70;53.40;;;;;;4482462;32;20131;-64
2022/01/16 00:08:53;;;;;;;14.23;5.85;;;20.70;53.40;;;;;;4480972;32;20164;-64
2022/01/16 00:11:19;;;;;;;18.63;5.85;;;20.60;53.50;;;;;;4482459;32;20141;-64
2022/01/16 00:13:45;;;;;;;16.85;5.65;;;20.60;53.50;;;;;;4482399;32;20525;-65
2022/01/16 00:16:13;;;;;;;16.50;5.95;;;20.50;53.50;;;;;;4480665;32;20243;-64
2022/01/16 00:18:49;;;;;;;14.77;6.05;;;20.50;53.50;;;;;;4482579;31;20147;-64
2022/01/16 00:21:26;;;;;;;17.67;6.57;;;20.50;53.50;;;;;;4481808;31;20233;-64
2022/01/16 00:23:53;;;;;;;15.98;5.97;;;20.50;53.60;;;;;;4482378;31;20703;-65
2022/01/16 00:26:20;;;;;;;12.35;5.40;;;20.40;53.60;;;;;;4480734;32;20267;-64
2022/01/16 00:28:47;;;;;;;16.63;5.53;;;20.40;53.70;;;;;;4482044;31;20195;-64
2022/01/16 00:31:13;;;;;;;15.30;6.25;;;20.40;53.70;;;;;;4481931;31;20144;-64
2022/01/16 00:33:42;;;;;;;15.98;4.95;;;20.30;53.70;;;;;;4481674;31;20109;-64
2022/01/16 00:36:10;;;;;;;11.88;5.75;;;20.30;53.80;;;;;;4480727;32;20147;-64
2022/01/16 00:38:39;;;;;;;11.93;5.35;;;20.30;53.80;;;;;;4480739;32;20136;-65
2022/01/16 00:41:05;;;;;;;12.30;5.43;;;20.30;53.90;;;;;;4493956;31;20593;-64
2022/01/16 00:43:31;;;;;;;13.52;5.68;;;20.30;54.00;;;;;;4493738;31;20207;-64
2022/01/16 00:45:57;;;;;;;14.95;5.75;;;20.20;53.90;;;;;;4481737;32;20630;-64
2022/01/16 00:48:23;;;;;;;13.38;5.68;;;20.20;54.00;;;;;;4482005;32;20183;-64
2022/01/16 00:50:49;;;;;;;11.48;5.45;;;20.20;54.00;;;;;;4481464;32;20136;-64
2022/01/16 00:53:15;;;;;;;11.93;5.90;;;20.20;54.10;;;;;;4481446;32;20191;-64
2022/01/16 00:55:41;;;;;;;11.73;5.35;;;20.10;54.10;;;;;;4481468;32;20259;-64
2022/01/16 00:58:07;;;;;;;11.00;5.57;;;20.10;54.10;;;;;;4493643;31;20139;-64
2022/01/16 01:00:33;;;;;;;12.10;5.72;;;20.10;55.10;;;;;;4481471;32;20159;-64
2022/01/16 01:03:00;;;;;;;13.05;6.20;;;20.10;54.20;;;;;;4480836;32;20578;-64
2022/01/16 01:05:27;;;;;;;14.07;6.00;;;20.10;54.20;;;;;;4481437;31;20144;-64
2022/01/16 01:07:53;;;;;;;9.98;5.78;;;20.00;54.20;;;;;;4481003;31;20183;-64
2022/01/16 01:10:24;;;;;;;10.43;5.47;;;20.00;54.20;;;;;;4481449;31;20685;-64
2022/01/16 01:12:54;;;;;;;13.07;5.68;;;20.00;54.30;;;;;;4481322;32;20125;-64
2022/01/16 01:15:29;;;;;;;10.10;5.90;;;20.00;54.30;;;;;;4481566;32;20117;-65
2022/01/16 01:17:55;;;;;;;14.00;5.55;;;20.00;54.30;;;;;;4481363;31;20275;-64
2022/01/16 01:20:23;;;;;;;11.10;5.85;;;19.90;54.30;;;;;;4480846;32;20129;-65
2022/01/16 01:22:51;;;;;;;10.05;6.15;;;19.90;54.30;;;;;;4480629;32;20120;-64
2022/01/16 01:25:18;;;;;;;8.95;5.38;;;19.90;54.30;;;;;;4480673;31;20117;-64
2022/01/16 01:27:46;;;;;;;9.80;5.57;;;19.90;54.40;;;;;;4481465;31;20141;-64
2022/01/16 01:30:17;;;;;;;13.23;6.63;;;19.90;54.40;;;;;;4480636;32;20121;-64
2022/01/16 01:32:46;;;;;;;9.50;5.38;;;19.90;54.40;;;;;;4480289;32;20192;-64
2022/01/16 01:35:14;;;;;;;8.85;5.93;;;19.80;54.40;;;;;;4481045;31;20136;-64
2022/01/16 01:37:41;;;;;;;11.63;5.50;;;19.80;54.50;;;;;;4480742;32;20221;-65
2022/01/16 01:40:13;;;;;;;9.68;5.63;;;19.80;54.50;;;;;;4480287;31;20178;-64
2022/01/16 01:43:01;;;;;;;9.00;5.57;;;19.80;54.60;;;;;;4466885;32;20109;-64
2022/01/16 01:51:19;;;;;;;10.43;5.68;;;19.70;54.60;;;;;;4480321;32;20125;-64
2022/01/16 01:53:50;;;;;;;10.52;5.75;;;19.70;54.70;;;;;;4481094;31;20125;-64
2022/01/16 01:56:22;;;;;;;8.30;5.72;;;19.60;54.70;;;;;;4480477;31;20124;-64
2022/01/16 01:58:52;;;;;;;9.85;6.50;;;19.70;54.70;;;;;;4479673;32;20225;-64
2022/01/16 02:01:18;;;;;;;9.82;5.78;;;19.60;54.70;;;;;;4480736;31;20267;-64
2022/01/16 02:03:45;;;;;;;11.57;5.72;;;19.60;54.80;;;;;;4480298;32;20129;-64
2022/01/16 02:06:18;;;;;;;11.18;6.30;;;19.60;54.80;;;;;;4480819;32;20136;-64
2022/01/16 02:08:46;;;;;;;10.98;5.85;;;19.60;54.80;;;;;;4480550;32;20217;-64
2022/01/16 02:11:14;;;;;;;10.25;6.53;;;19.50;54.80;;;;;;4480756;32;20125;-64
2022/01/16 02:34:51;;;;;;;11.18;6.47;;;19.40;54.70;;;;;;4480458;32;20255;-64
2022/01/16 02:37:19;;;;;;;10.48;6.70;;;19.40;54.70;;;;;;4492374;32;20121;-64
2022/01/16 02:39:50;;;;;;;11.18;6.75;;;19.40;54.70;;;;;;4480538;32;20129;-64
2022/01/16 02:42:16;;;;;;;9.65;6.55;;;19.40;54.80;;;;;;4480206;32;20614;-64
2022/01/16 02:44:47;;;;;;;11.18;7.70;;;19.40;54.70;;;;;;4480155;32;20221;-64
2022/01/16 02:47:20;;;;;;;9.90;6.50;;;19.40;54.70;;;;;;4480278;32;20129;-64
2022/01/16 02:49:48;;;;;;;9.40;6.85;;;19.40;54.70;;;;;;4480383;32;20197;-64
2022/01/16 02:52:17;;;;;;;11.75;7.30;;;19.30;54.70;;;;;;4480439;32;20521;-64
2022/01/16 02:54:45;;;;;;;10.88;7.93;;;19.30;54.60;;;;;;4479819;32;20291;-64
2022/01/16 02:57:14;;;;;;;10.38;7.80;;;19.30;54.60;;;;;;4480571;32;20195;-64
2022/01/16 02:59:44;;;;;;;10.68;7.45;;;19.30;54.50;;;;;;4479893;32;20125;-64
2022/01/16 03:02:10;;;;;;;12.65;8.02;;;19.30;54.50;;;;;;4492495;32;20819;-64
2022/01/16 03:04:36;;;;;;;11.02;7.35;;;19.30;54.50;;;;;;4479381;32;20117;-64
2022/01/16 03:07:03;;;;;;;9.13;7.13;;;19.30;54.40;;;;;;4480281;32;20125;-64
2022/01/16 03:09:45;;;;;;;10.63;7.70;;;19.30;54.50;;;;;;4479969;32;20159;-64
2022/01/16 03:12:11;;;;;;;10.40;7.95;;;19.20;54.40;;;;;;4479967;32;20125;-64
2022/01/16 03:14:37;;;;;;;12.50;8.65;;;19.20;55.30;;;;;;4478812;32;20144;-64
2022/01/16 03:17:03;;;;;;;10.68;8.05;;;19.20;54.40;;;;;;4479795;32;20267;-64
2022/01/16 03:22:13;;;;;;;14.43;9.23;;;19.20;54.30;;;;;;4479426;32;20125;-64
2022/01/16 03:24:42;;;;;;;12.48;8.55;;;19.20;54.30;;;;;;4479828;32;20129;-64
2022/01/16 03:27:14;;;;;;;10.98;7.68;;;19.20;54.30;;;;;;4482686;31;20474;-64
2022/01/16 03:29:43;;;;;;;12.32;8.23;;;19.10;54.20;;;;;;4482910;32;20136;-64
2022/01/16 03:32:12;;;;;;;14.52;8.35;;;19.10;54.30;;;;;;4482948;31;20113;-64
2022/01/16 03:34:39;;;;;;;11.57;8.57;;;19.10;54.30;;;;;;4482409;31;20121;-64
2022/01/16 03:37:06;;;;;;;11.02;8.50;;;19.10;54.30;;;;;;4482827;31;20137;-64
2022/01/16 03:39:32;;;;;;;12.80;9.20;;;19.10;54.30;;;;;;4482765;31;20117;-64
2022/01/16 03:42:00;;;;;;;14.50;9.02;;;19.10;54.20;;;;;;4482505;31;20513;-64
2022/01/16 03:44:26;;;;;;;12.70;9.00;;;19.10;54.20;;;;;;4494940;31;20137;-64
2022/01/16 03:46:53;;;;;;;12.07;8.93;;;19.00;54.10;;;;;;4482255;31;20187;-64
2022/01/16 03:49:24;;;;;;;11.93;8.77;;;19.00;54.00;;;;;;4482671;32;20144;-65
2022/01/16 03:51:52;;;;;;;12.77;9.57;;;19.00;54.00;;;;;;4482248;31;20265;-64
2022/01/16 03:54:21;;;;;;;13.63;9.60;;;19.00;54.00;;;;;;4481561;32;20157;-64
2022/01/16 03:56:48;;;;;;;11.70;9.52;;;19.00;54.00;;;;;;4482615;32;20501;-64
2022/01/16 03:59:14;;;;;;;13.02;9.63;;;19.00;54.00;;;;;;4482355;31;20314;-64
2022/01/16 04:01:41;;;;;;;13.57;9.68;;;19.00;54.00;;;;;;4482430;31;20131;-64
2022/01/16 04:04:07;;;;;;;11.80;9.02;;;19.00;53.90;;;;;;4481941;31;20129;-64
2022/01/16 04:06:34;;;;;;;12.90;9.40;;;19.00;53.90;;;;;;4482404;32;20137;-64
2022/01/16 04:09:00;;;;;;;15.10;9.73;;;19.00;53.90;;;;;;4482362;32;20132;-64
2022/01/16 04:11:27;;;;;;;12.80;9.55;;;18.90;53.90;;;;;;4481188;31;20600;-64
2022/01/16 04:14:03;;;;;;;14.63;9.80;;;18.90;53.80;;;;;;4482306;31;20223;-65
2022/01/16 04:16:29;;;;;;;11.95;9.50;;;18.90;53.90;;;;;;4481868;31;20140;-64
2022/01/16 04:18:55;;;;;;;12.73;9.18;;;18.90;53.90;;;;;;4482070;31;20718;-64
2022/01/16 04:21:23;;;;;;;14.02;9.63;;;18.90;53.90;;;;;;4481827;32;20121;-64
2022/01/16 04:23:50;;;;;;;12.43;9.52;;;18.90;54.00;;;;;;4482259;31;20121;-64
2022/01/16 04:26:17;;;;;;;13.75;9.43;;;18.90;53.90;;;;;;4481907;32;20259;-64
2022/01/16 04:28:46;;;;;;;11.52;9.10;;;18.90;54.00;;;;;;4481916;31;20121;-63
2022/01/16 04:31:12;;;;;;;11.07;9.20;;;18.90;54.00;;;;;;4482445;32;20143;-64
2022/01/16 04:33:39;;;;;;;11.13;8.60;;;18.80;53.90;;;;;;4481317;31;20648;-64
2022/01/16 04:36:06;;;;;;;12.63;9.95;;;18.80;53.80;;;;;;4481309;32;20148;-64
2022/01/16 04:38:38;;;;;;;12.90;10.18;;;18.80;53.90;;;;;;4481826;32;20143;-64
2022/01/16 04:43:50;;;;;;;13.00;9.38;;;18.80;53.90;;;;;;4481907;31;20135;-64
2022/01/16 04:46:22;;;;;;;12.75;9.68;;;18.80;53.90;;;;;;4480403;32;20147;-64
2022/01/16 04:48:50;;;;;;;14.85;10.05;;;18.80;53.90;;;;;;4481763;31;20147;-64
2022/01/16 04:51:16;;;;;;;11.80;9.52;;;18.80;53.90;;;;;;4481451;31;20263;-64
2022/01/16 04:53:43;;;;;;;12.27;9.45;;;18.70;53.80;;;;;;4481645;31;20139;-64
2022/01/16 04:56:09;;;;;;;13.82;10.35;;;18.70;53.80;;;;;;4481562;31;20819;-64
2022/01/16 04:58:36;;;;;;;11.90;9.18;;;18.70;53.90;;;;;;4493588;31;20129;-64
2022/01/16 05:01:05;;;;;;;12.70;9.45;;;18.70;53.90;;;;;;4481736;31;20137;-65
2022/01/16 05:03:32;;;;;;;14.55;10.30;;;18.70;53.90;;;;;;4480964;32;20283;-64
2022/01/16 05:05:59;;;;;;;12.55;9.38;;;18.70;53.90;;;;;;4481492;31;20113;-64
2022/01/16 05:08:26;;;;;;;13.52;9.75;;;18.70;53.90;;;;;;4493285;31;20135;-64
2022/01/16 05:10:54;;;;;;;12.60;9.63;;;18.70;53.90;;;;;;4481502;32;20125;-64
2022/01/16 05:18:37;;;;;;;14.68;10.02;;;18.60;53.90;;;;;;4481529;32;20127;-64
2022/01/16 05:21:03;;;;;;;13.18;9.48;;;18.60;54.00;;;;;;4480762;31;20152;-65
2022/01/16 05:23:29;;;;;;;12.15;9.07;;;18.60;53.90;;;;;;4493594;31;20550;-64
2022/01/16 05:25:56;;;;;;;14.43;9.55;;;18.60;54.00;;;;;;4466593;32;20109;-64
2022/01/16 05:28:22;;;;;;;14.57;10.30;;;18.60;54.00;;;;;;4481405;32;20199;-64
2022/01/16 05:30:48;;;;;;;12.52;9.55;;;18.60;54.00;;;;;;4493056;31;20210;-63
2022/01/16 05:33:14;;;;;;;15.32;10.07;;;18.60;54.00;;;;;;4480946;31;20117;-64
2022/01/16 05:35:41;;;;;;;14.40;9.73;;;18.60;54.00;;;;;;4481222;32;20156;-64
2022/01/16 05:38:07;;;;;;;12.93;9.95;;;18.60;54.00;;;;;;4492728;31;20121;-64
2022/01/16 05:40:34;;;;;;;14.00;9.43;;;18.50;53.90;;;;;;4481108;32;20255;-64
2022/01/16 05:43:01;;;;;;;13.35;9.57;;;18.60;54.00;;;;;;4480643;32;20131;-64
2022/01/16 05:45:28;;;;;;;14.60;10.43;;;18.50;54.00;;;;;;4493039;31;20121;-64
2022/01/16 05:47:54;;;;;;;12.70;9.15;;;18.50;54.00;;;;;;4480627;32;20203;-64
2022/01/16 05:50:20;;;;;;;13.38;9.48;;;18.50;54.00;;;;;;4480535;32;20186;-64
2022/01/16 05:52:47;;;;;;;12.98;9.50;;;18.50;54.00;;;;;;4479806;32;20129;-64
2022/01/16 05:55:13;;;;;;;13.65;10.10;;;18.50;54.00;;;;;;4492789;31;20125;-64
2022/01/16 05:57:40;;;;;;;14.02;9.63;;;18.50;54.00;;;;;;4480925;32;20269;-64
2022/01/16 06:00:07;;;;;;;13.23;9.40;;;18.50;54.10;;;;;;4480302;32;20196;-64
2022/01/16 06:02:33;;;;;;;12.65;9.85;;;18.50;54.10;;;;;;4479866;32;20124;-64
2022/01/16 06:04:59;;;;;;;15.13;10.05;;;18.40;54.00;;;;;;4492511;31;20137;-64
2022/01/16 06:07:25;;;;;;;14.10;10.30;;;18.50;54.20;;;;;;4480490;32;20135;-64
2022/01/16 06:09:52;;;;;;;15.50;10.52;;;18.40;54.10;;;;;;4480798;32;20608;-64
2022/01/16 06:12:19;;;;;;;14.82;10.13;;;18.40;54.10;;;;;;4492377;31;20120;-64
2022/01/16 06:14:45;;;;;;;12.80;9.25;;;18.50;54.10;;;;;;4479755;32;20254;-64
2022/01/16 06:17:11;;;;;;;13.93;10.23;;;18.40;54.10;;;;;;4492166;31;20313;-64
2022/01/16 06:19:37;;;;;;;14.35;10.60;;;18.40;54.10;;;;;;4479713;32;20141;-64
2022/01/16 06:22:03;;;;;;;13.07;9.48;;;18.40;54.10;;;;;;4480427;32;20140;-64
2022/01/16 06:24:29;;;;;;;13.07;9.30;;;18.40;54.10;;;;;;4480407;32;20129;-64
2022/01/16 06:26:55;;;;;;;14.15;10.23;;;18.40;54.10;;;;;;4479670;32;20125;-63
2022/01/16 06:29:21;;;;;;;13.85;9.85;;;18.40;54.10;;;;;;4480383;32;20127;-64
2022/01/16 06:31:47;;;;;;;13.48;9.55;;;18.40;54.10;;;;;;4480706;32;20147;-64
2022/01/16 06:34:13;;;;;;;13.10;9.50;;;18.40;54.10;;;;;;4479969;32;20229;-64
2022/01/16 06:36:39;;;;;;;13.50;9.07;;;18.40;54.10;;;;;;4479586;32;20596;-64
2022/01/16 06:39:09;;;;;;;12.20;8.65;;;18.40;54.10;;;;;;4480150;32;20275;-63
2022/01/16 06:41:36;;;;;;;12.77;9.50;;;18.30;54.10;;;;;;4480709;32;20140;-64
2022/01/16 06:44:03;;;;;;;12.27;9.20;;;18.30;54.10;;;;;;4480535;32;20124;-64
2022/01/16 06:46:29;;;;;;;14.63;10.27;;;18.30;54.10;;;;;;4478975;32;20127;-64
2022/01/16 06:48:55;;;;;;;12.98;9.63;;;18.30;54.10;;;;;;4480465;32;20121;-63
2022/01/16 06:51:21;;;;;;;12.60;9.32;;;18.30;54.20;;;;;;4480168;32;20141;-64
2022/01/16 06:53:49;;;;;;;12.10;8.98;;;18.30;54.10;;;;;;4480683;32;20203;-64
2022/01/16 06:56:16;;;;;;;12.23;8.95;;;18.30;54.20;;;;;;4479950;32;20263;-64
2022/01/16 06:58:42;;;;;;;11.88;9.18;;;18.30;54.20;;;;;;4480181;32;20284;-64
2022/01/16 07:01:10;;;;;;;12.60;9.40;;;18.30;54.30;;;;;;4482774;32;20266;-64
2022/01/16 07:03:37;;;;;;;13.02;9.15;;;18.30;54.20;;;;;;4483169;31;20621;-64
2022/01/16 07:06:04;;;;;;;13.38;9.45;;;18.30;54.20;;;;;;4483241;31;20156;-64
2022/01/16 07:08:30;;;;;;;11.90;8.35;;;18.30;54.30;;;;;;4483092;32;20153;-64
2022/01/16 07:10:57;;;;;;;12.90;9.50;;;18.20;54.30;;;;;;4483600;31;20133;-64
2022/01/16 07:13:24;;;;;;;11.68;8.73;;;18.20;54.30;;;;;;4482985;32;20148;-64
2022/01/16 07:15:50;;;;;;;13.13;9.45;;;18.20;54.30;;;;;;4495020;31;20125;-64
2022/01/16 07:18:16;;;;;;;11.75;8.90;;;18.20;54.30;;;;;;4495418;31;20147;-64
2022/01/16 07:20:43;;;;;;;11.80;9.05;;;18.20;54.40;;;;;;4482845;31;20145;-64
2022/01/16 07:23:11;;;;;;;12.68;9.10;;;18.20;54.40;;;;;;4482906;31;20145;-63
2022/01/16 07:25:37;;;;;;;12.93;8.93;;;18.20;54.40;;;;;;4482874;32;20140;-64
2022/01/16 07:28:03;;;;;;;13.15;9.40;;;18.20;54.40;;;;;;4482119;32;20141;-64
2022/01/16 07:30:29;;;;;;;12.27;9.02;;;18.10;54.40;;;;;;4483015;32;20462;-64
2022/01/16 07:32:55;;;;;;;13.38;8.65;;;18.20;54.40;;;;;;4481858;32;20101;-64
2022/01/16 07:35:21;;;;;;;13.63;9.70;;;18.20;54.40;;;;;;4481867;32;20125;-64
2022/01/16 07:37:51;;;;;;;12.15;8.57;;;18.20;54.50;;;;;;4482472;32;20129;-64
2022/01/16 07:40:20;;;;;;;12.88;9.40;;;18.10;54.50;;;;;;4482937;31;20144;-64
2022/01/16 07:42:47;;;;;;;12.60;9.27;;;18.10;54.40;;;;;;4494708;31;20128;-64
2022/01/16 07:45:13;;;;;;;14.98;9.27;;;18.10;54.50;;;;;;4494836;31;20125;-64
2022/01/16 07:47:40;;;;;;;12.25;8.65;;;18.10;54.50;;;;;;4482749;31;20147;-64
2022/01/16 07:50:08;;;;;;;13.05;9.40;;;18.10;54.50;;;;;;4481232;32;20125;-63
2022/01/16 07:52:34;;;;;;;14.68;9.40;;;18.10;54.50;;;;;;4483040;31;20283;-64
2022/01/16 07:55:00;;;;;;;12.18;8.65;;;18.10;54.60;;;;;;4482520;31;20279;-64
2022/01/16 07:57:27;;;;;;;12.35;9.10;;;18.10;54.60;;;;;;4494418;31;20125;-64
2022/01/16 07:59:53;;;;;;;13.20;9.00;;;18.10;54.60;;;;;;4481475;32;20129;-64
2022/01/16 08:02:20;;;;;;;13.52;9.32;;;18.10;54.50;;;;;;4481563;31;20271;-64
2022/01/16 08:04:46;;;;;;;13.25;8.75;;;18.10;54.60;;;;;;4480079;31;20117;-64
2022/01/16 08:07:12;;;;;;;14.25;9.93;;;18.10;54.60;;;;;;4481667;32;20136;-64
2022/01/16 08:09:40;;;;;;;13.55;9.45;;;18.00;54.50;;;;;;4482110;32;20129;-63
2022/01/16 08:12:12;;;;;;;14.93;10.55;;;18.10;54.60;;;;;;4480685;31;20180;-63
2022/01/16 08:14:38;;;;;;;21.65;13.75;;;18.00;54.40;;;;;;4481899;32;20147;-63
2022/01/16 08:17:04;;;;;;;20.45;13.73;;;18.00;53.80;;;;;;4481489;32;20125;-64
2022/01/16 08:19:31;;;;;;;20.42;14.32;;;18.00;53.20;;;;;;4481236;31;20199;-63
2022/01/16 08:21:57;;;;;;;21.92;13.40;;;18.00;52.60;;;;;;4480792;31;20129;-64
2022/01/16 08:24:24;;;;;;;19.38;13.45;;;17.90;52.60;;;;;;4479829;32;20194;-64
2022/01/16 08:26:50;;;;;;;21.52;13.85;;;17.90;52.90;;;;;;4480343;31;20124;-64
2022/01/16 08:29:17;;;;;;;18.90;13.40;;;17.90;53.10;;;;;;4480972;31;20137;-63
2022/01/16 08:31:45;;;;;;;21.13;13.07;;;17.90;53.20;;;;;;4480667;31;20278;-64
2022/01/16 08:34:11;;;;;;;23.27;13.05;;;17.90;53.20;;;;;;4479478;32;20125;-63
2022/01/16 08:36:37;;;;;;;20.35;12.95;;;17.90;53.30;;;;;;4480037;32;20161;-63
2022/01/16 08:39:04;;;;;;;20.52;11.95;;;17.90;53.30;;;;;;4480707;31;20136;-63
2022/01/16 08:41:31;;;;;;;21.85;12.02;;;17.90;53.20;;;;;;4480898;31;20246;-63
2022/01/16 08:43:58;;;;;;;17.63;11.55;;;17.90;53.30;;;;;;4481647;31;20655;-64
2022/01/16 08:46:24;;;;;;;17.63;11.35;;;17.90;53.20;;;;;;4480903;31;20128;-63
2022/01/16 08:48:51;;;;;;;16.05;11.00;;;18.00;53.20;;;;;;4480344;32;20141;-63
2022/01/16 08:51:17;;;;;;;18.60;10.88;;;18.00;53.10;;;;;;4480736;31;20282;-63
2022/01/16 08:53:45;;;;;;;15.38;9.98;;;18.10;53.10;;;;;;4481477;31;20206;-63
2022/01/16 08:56:12;;;;;;;18.30;10.50;;;18.20;53.00;;;;;;4480900;31;20177;-63
2022/01/16 08:58:37;;;;;;;12.77;8.68;;;18.20;52.90;;;;;;4480817;31;20139;-65
2022/01/16 09:01:03;;;;;;;17.55;9.57;;;18.30;52.70;;;;;;4481243;32;20129;-64
2022/01/16 09:03:29;;;;;;;19.05;9.13;;;18.40;52.50;;;;;;4480300;32;20149;-65
2022/01/16 09:05:55;;;;;;;13.93;9.30;;;18.60;52.20;;;;;;4478051;31;20183;-64
2022/01/16 09:08:21;;;;;;;13.13;8.30;;;18.60;51.90;;;;;;4479315;32;20117;-64
2022/01/16 09:10:47;;;;;;;11.63;7.40;;;18.80;51.70;;;;;;4481044;31;20234;-64
2022/01/16 09:13:17;;;;;;;12.65;7.85;;;18.90;51.50;;;;;;4480826;31;20143;-64
2022/01/16 09:15:44;;;;;;;11.93;7.75;;;19.00;51.20;;;;;;4481297;31;20133;-64
2022/01/16 09:18:10;;;;;;;11.05;7.65;;;19.10;51.00;;;;;;4481630;31;20195;-64
2022/01/16 09:20:38;;;;;;;10.77;6.38;;;19.20;50.70;;;;;;4479786;32;20212;-65
2022/01/16 09:23:04;;;;;;;10.70;6.78;;;19.30;50.50;;;;;;4480929;31;20582;-64
2022/01/16 09:25:30;;;;;;;11.23;6.63;;;19.50;50.30;;;;;;4480732;32;20223;-64
2022/01/16 09:27:57;;;;;;;10.73;6.35;;;19.50;50.10;;;;;;4481458;32;20121;-69
2022/01/16 09:30:23;;;;;;;9.75;6.18;;;19.60;49.90;;;;;;4480794;31;20668;-63
2022/01/16 09:32:49;;;;;;;10.52;6.18;;;19.80;49.80;;;;;;4480069;32;20133;-64
2022/01/16 09:35:16;;;;;;;9.63;6.07;;;19.80;49.60;;;;;;4481487;32;20125;-64
2022/01/16 09:37:43;;;;;;;12.25;6.18;;;19.90;49.40;;;;;;4480657;32;20206;-63
2022/01/16 09:40:12;;;;;;;11.30;5.40;;;20.00;49.40;;;;;;4481264;31;20221;-64
2022/01/16 09:42:39;;;;;;;8.10;5.30;;;20.20;49.40;;;;;;4480501;32;20133;-65
2022/01/16 09:45:10;;;;;;;8.95;5.30;;;20.20;49.50;;;;;;4481278;32;20513;-64
2022/01/16 09:47:36;;;;;;;7.63;5.22;;;20.30;49.40;;;;;;4480355;31;20136;-63
2022/01/16 09:50:05;;;;;;;13.00;5.90;;;20.50;49.40;;;;;;4480268;31;20137;-64
2022/01/16 09:52:38;;;;;;;8.05;4.93;;;20.50;49.20;;;;;;4481021;31;20263;-63
2022/01/16 09:55:06;;;;;;;11.18;5.20;;;20.60;49.00;;;;;;4480682;32;20199;-63
2022/01/16 09:57:32;;;;;;;8.75;5.03;;;20.70;48.90;;;;;;4480711;32;20242;-62
2022/01/16 09:59:58;;;;;;;7.38;4.80;;;20.80;48.70;;;;;;4480209;31;20125;-63
2022/01/16 10:02:24;;;;;;;8.88;5.22;;;20.90;48.60;;;;;;4478622;31;20206;-63
2022/01/16 10:04:50;;;;;;;8.57;4.50;;;21.00;48.50;;;;;;4480077;31;20132;-64
2022/01/16 10:07:18;;;;;;;6.80;4.72;;;21.10;48.30;;;;;;4480358;32;20148;-63
2022/01/16 10:10:07;;;;;;;8.00;4.53;;;21.20;48.10;;;;;;4480514;31;20160;-63
2022/01/16 10:12:34;;;;;;;7.55;4.45;;;21.30;48.10;;;;;;4479262;31;20144;-63
2022/01/16 10:15:22;;;;;;;7.10;4.55;;;21.40;47.70;;;;;;4479769;31;20133;-63
2022/01/16 10:17:50;;;;;;;8.15;4.22;;;21.50;47.70;;;;;;4480058;31;20129;-64
2022/01/16 10:20:16;;;;;;;10.43;4.22;;;21.50;47.50;;;;;;4479858;31;20140;-62
2022/01/16 10:22:48;;;;;;;10.55;4.22;;;21.60;47.50;;;;;;4480268;31;20137;-65
2022/01/16 10:25:16;;;;;;;16.20;4.32;;;21.60;47.40;;;;;;4479535;31;20176;-64
2022/01/16 10:27:45;;;;;;;9.45;4.15;;;21.70;47.40;;;;;;4477084;32;20214;-64
2022/01/16 10:30:14;;;;;;;8.05;3.72;;;21.70;47.40;;;;;;4479544;32;20121;-63
2022/01/16 10:32:43;;;;;;;9.18;4.13;;;21.80;47.30;;;;;;4479855;32;20553;-64
2022/01/16 10:35:22;;;;;;;11.63;4.32;;;21.80;47.10;;;;;;4482658;31;20125;-64
2022/01/16 10:37:52;;;;;;;12.32;4.07;;;21.90;47.20;;;;;;4482969;31;20548;-64
2022/01/16 10:40:32;;;;;;;13.25;3.92;;;21.90;47.10;;;;;;4483536;31;20137;-64
2022/01/16 10:43:03;;;;;;;13.90;4.07;;;21.90;47.40;;;;;;4483499;31;20238;-64
2022/01/16 10:45:30;;;;;;;10.45;4.32;;;21.80;47.40;;;;;;4483592;31;20188;-64
2022/01/16 10:47:58;;;;;;;11.68;3.90;;;21.80;47.60;;;;;;4482882;32;20128;-64
2022/01/16 10:50:32;;;;;;;10.75;4.28;;;21.70;47.80;;;;;;4483151;31;20273;-66
2022/01/16 10:53:00;;;;;;;11.40;4.07;;;21.70;48.20;;;;;;4483754;31;20133;-69
2022/01/16 10:55:40;;;;;;;12.50;3.60;;;21.60;48.60;;;;;;4483117;32;20180;-69
2022/01/16 10:58:08;;;;;;;6.90;3.90;;;21.50;48.90;;;;;;4482420;32;20218;-69
2022/01/16 11:00:35;;;;;;;11.45;3.65;;;21.50;49.00;;;;;;4483350;32;20137;-68
2022/01/16 11:03:04;;;;;;;10.60;3.70;;;21.40;49.20;;;;;;4483091;31;20140;-68
2022/01/16 11:05:36;;;;;;;13.40;5.05;;;21.40;49.30;;;;;;4483313;31;20170;-68
2022/01/16 11:08:14;;;;;;;9.15;4.80;;;21.30;49.00;;;;;;4483310;32;20139;-69
2022/01/16 11:10:43;;;;;;;13.10;5.28;;;21.20;48.80;;;;;;4483294;31;20143;-67
2022/01/16 11:13:14;;;;;;;11.43;5.97;;;21.20;48.60;;;;;;4483003;31;20136;-68
2022/01/16 11:15:47;;;;;;;12.30;5.60;;;21.10;48.40;;;;;;4482945;31;20131;-70
2022/01/16 11:18:14;;;;;;;10.13;5.57;;;21.10;48.30;;;;;;4476750;31;20125;-69
2022/01/16 11:20:44;;;;;;;13.10;5.22;;;21.10;48.30;;;;;;4479305;31;20271;-68
2022/01/16 11:23:27;;;;;;;15.20;5.13;;;21.10;48.30;;;;;;4483117;31;20554;-68
2022/01/16 11:25:59;;;;;;;9.60;4.53;;;21.10;48.60;;;;;;4482600;31;20144;-69
2022/01/16 11:28:25;;;;;;;15.65;5.25;;;21.10;48.40;;;;;;4481890;32;20129;-68
2022/01/16 11:30:54;;;;;;;12.95;4.57;;;21.20;48.60;;;;;;4483065;31;20137;-69
2022/01/16 11:33:24;;;;;;;11.43;4.30;;;21.20;48.70;;;;;;4481722;32;20214;-69
2022/01/16 11:35:56;;;;;;;12.63;4.68;;;21.20;48.80;;;;;;4469099;32;20124;-69
2022/01/16 11:38:29;;;;;;;14.63;4.43;;;21.20;48.90;;;;;;4482850;31;20144;-69
2022/01/16 11:40:56;;;;;;;11.98;4.80;;;21.20;48.90;;;;;;4482066;32;20267;-69
2022/01/16 11:43:34;;;;;;;13.48;5.15;;;21.20;48.90;;;;;;4482921;31;20176;-69
2022/01/16 11:46:11;;;;;;;11.85;4.80;;;21.20;48.80;;;;;;4480643;32;20578;-70
2022/01/16 11:48:46;;;;;;;16.05;5.65;;;21.20;48.60;;;;;;4483201;31;20133;-69
2022/01/16 11:51:40;;;;;;;13.38;5.00;;;21.20;48.80;;;;;;4482589;31;20180;-70
2022/01/16 11:54:25;;;;;;;11.05;4.43;;;21.20;48.80;;;;;;4482709;31;20140;-69
2022/01/16 11:57:01;;;;;;;11.73;5.03;;;21.20;49.20;;;;;;4482870;32;20136;-69
2022/01/16 11:59:30;;;;;;;10.38;4.22;;;21.20;49.20;;;;;;4482276;32;20201;-69
2022/01/16 12:02:08;;;;;;;14.10;4.93;;;21.20;48.90;;;;;;4481234;32;20129;-69
2022/01/16 12:04:36;;;;;;;16.38;5.22;;;21.20;48.60;;;;;;4482453;31;20608;-69
2022/01/16 12:07:15;;;;;;;11.98;4.85;;;21.10;48.30;;;;;;4481779;31;20693;-75
2022/01/16 12:09:48;;;;;;;15.15;4.57;;;21.10;48.00;;;;;;4482093;31;20133;-72
2022/01/16 12:12:14;;;;;;;13.70;5.57;;;21.10;47.80;;;;;;4482292;31;20132;-75
2022/01/16 12:14:50;;;;;;;14.80;5.28;;;21.00;47.60;;;;;;4482671;32;20113;-74
2022/01/16 12:17:27;;;;;;;15.90;4.43;;;21.00;47.50;;;;;;4482173;32;20141;-69
2022/01/16 12:19:56;;;;;;;15.32;4.90;;;21.10;47.40;;;;;;4481503;31;20128;-69
2022/01/16 12:22:44;;;;;;;14.07;5.20;;;21.00;47.20;;;;;;4481927;31;20242;-71
2022/01/16 12:25:28;;;;;;;13.93;4.60;;;21.10;47.20;;;;;;4482103;31;20160;-71
2022/01/16 12:28:01;;;;;;;16.27;4.55;;;21.00;47.30;;;;;;4482154;32;20184;-70
2022/01/16 12:30:38;;;;;;;12.95;4.60;;;21.10;47.30;;;;;;4481472;32;20282;-71
2022/01/16 12:33:09;;;;;;;15.95;4.07;;;21.10;47.40;;;;;;4493967;31;20141;-72
2022/01/16 12:35:54;;;;;;;9.23;3.70;;;21.10;47.40;;;;;;4482390;31;20341;-71
2022/01/16 12:38:31;;;;;;;10.98;3.67;;;21.10;47.50;;;;;;4481455;31;20152;-83
2022/01/16 12:41:11;;;;;;;7.15;3.22;;;21.20;47.60;;;;;;4482015;31;20135;-68
2022/01/16 12:43:48;;;;;;;10.20;3.50;;;21.20;47.70;;;;;;4480708;31;20124;-70
2022/01/16 12:46:28;;;;;;;9.25;3.58;;;21.20;47.70;;;;;;4480161;31;20161;-70
2022/01/16 12:48:57;;;;;;;11.48;3.72;;;21.20;47.80;;;;;;4480875;31;20124;-66
2022/01/16 12:51:26;;;;;;;12.05;3.58;;;21.20;47.80;;;;;;4481238;31;20223;-67
2022/01/16 12:54:01;;;;;;;10.60;3.70;;;21.20;47.80;;;;;;4480173;31;20148;-66
2022/01/16 12:56:30;;;;;;;9.00;4.05;;;21.20;47.90;;;;;;4481596;31;20145;-67
2022/01/16 12:59:05;;;;;;;8.68;3.28;;;21.20;47.90;;;;;;4480261;31;20528;-66
2022/01/16 13:01:32;;;;;;;7.95;3.13;;;21.20;47.90;;;;;;4471709;31;20520;-65
2022/01/16 13:03:58;;;;;;;10.32;3.03;;;21.20;47.80;;;;;;4480764;31;20132;-65
2022/01/16 13:06:26;;;;;;;8.30;3.33;;;21.20;47.80;;;;;;4481120;31;20129;-67
2022/01/16 13:09:06;;;;;;;18.55;3.78;;;21.20;48.80;;;;;;4480828;31;20183;-67
2022/01/16 13:11:47;;;;;;;9.55;3.15;;;21.10;47.80;;;;;;4480175;32;20279;-67
2022/01/16 13:14:25;;;;;;;11.45;3.70;;;21.00;47.90;;;;;;4480319;32;20144;-66
2022/01/16 13:16:54;;;;;;;10.45;3.47;;;20.90;47.90;;;;;;4481290;31;20117;-67
2022/01/16 13:19:49;;;;;;;10.35;3.30;;;20.90;48.00;;;;;;4481135;31;20125;-65
2022/01/16 13:22:16;;;;;;;9.90;3.13;;;20.80;48.10;;;;;;4481114;31;20147;-65
2022/01/16 13:25:04;;;;;;;8.07;3.40;;;20.80;48.30;;;;;;4480962;31;20133;-68
2022/01/16 13:27:39;;;;;;;11.70;3.60;;;20.80;48.40;;;;;;4480325;32;20152;-67